Time;durP1;ratioP1;P1;durP2;ratioP2;P2;SDS_P1;SDS_P2;PMS_P1;PMS_P2;Temp;Humidity;BMP_temperature;BMP_pressure;BME280_temperature;BME280_humidity;BME280_pressure;Samples;Min_cycle;Max_cycle;Signal;HPM_P1;HPM_P2
2023/08/28 00:00:34;;;;;;;5.35;1.70;;;;;;;;;;6215093;23;20012;-86
2023/08/28 00:03:00;;;;;;;1.88;1.60;;;;;;;;;;6214074;23;20012;-86
2023/08/28 00:05:29;;;;;;;2.65;2.10;;;;;;;;;;6214576;23;20119;-86
2023/08/28 00:07:55;;;;;;;3.13;1.98;;;;;;;;;;6213446;23;20024;-86
2023/08/28 00:10:21;;;;;;;3.28;2.03;;;;;;;;;;6213557;23;20043;-86
2023/08/28 00:12:47;;;;;;;2.75;2.08;;;;;;;;;;6213741;23;20026;-86
2023/08/28 00:15:13;;;;;;;3.13;2.03;;;;;;;;;;6213143;23;20772;-86
2023/08/28 00:17:39;;;;;;;2.67;1.92;;;;;;;;;;6241303;23;20016;-86
2023/08/28 00:20:09;;;;;;;2.97;2.28;;;;;;;;;;6189142;23;20013;-86
2023/08/28 00:22:36;;;;;;;2.63;2.15;;;;;;;;;;6214870;23;20015;-86
2023/08/28 00:25:03;;;;;;;2.65;2.22;;;;;;;;;;6213067;23;20255;-86
2023/08/28 00:27:29;;;;;;;3.47;2.47;;;;;;;;;;6240685;23;20338;-86
2023/08/28 00:29:55;;;;;;;4.18;2.28;;;;;;;;;;6213771;23;20020;-86
2023/08/28 00:32:21;;;;;;;3.13;2.25;;;;;;;;;;6214350;23;20016;-86
2023/08/28 00:34:47;;;;;;;3.38;2.75;;;;;;;;;;6214948;23;20035;-86
2023/08/28 00:37:13;;;;;;;6.65;2.70;;;;;;;;;;6240860;23;20462;-86
2023/08/28 00:39:40;;;;;;;2.90;2.22;;;;;;;;;;6214149;23;20015;-87
2023/08/28 00:42:06;;;;;;;2.50;2.15;;;;;;;;;;6214029;23;20071;-86
2023/08/28 00:44:32;;;;;;;5.30;2.70;;;;;;;;;;6214616;23;20090;-86
2023/08/28 00:46:58;;;;;;;3.00;2.30;;;;;;;;;;6213913;23;20012;-86
2023/08/28 00:49:24;;;;;;;4.60;2.67;;;;;;;;;;6213948;23;20047;-86
2023/08/28 00:51:50;;;;;;;3.85;2.42;;;;;;;;;;6241097;23;20024;-86
2023/08/28 00:54:16;;;;;;;3.40;2.40;;;;;;;;;;6213290;23;20091;-86
2023/08/28 00:56:42;;;;;;;3.85;2.83;;;;;;;;;;6214960;23;20013;-87
2023/08/28 00:59:09;;;;;;;4.00;2.58;;;;;;;;;;6213581;23;20485;-87
2023/08/28 01:01:35;;;;;;;4.07;2.97;;;;;;;;;;6214665;23;20019;-86
2023/08/28 01:04:01;;;;;;;5.32;3.22;;;;;;;;;;6212512;23;20015;-87
2023/08/28 01:06:30;;;;;;;2.53;2.33;;;;;;;;;;6214040;23;20043;-87
2023/08/28 01:09:08;;;;;;;4.80;3.30;;;;;;;;;;6212608;23;20016;-86
2023/08/28 01:11:45;;;;;;;4.32;3.08;;;;;;;;;;6214452;23;20090;-86
2023/08/28 01:14:14;;;;;;;3.45;2.53;;;;;;;;;;6213039;23;20066;-86
2023/08/28 01:16:41;;;;;;;2.97;2.53;;;;;;;;;;6215294;23;20016;-86
2023/08/28 01:19:14;;;;;;;4.47;2.38;;;;;;;;;;6215509;23;20016;-87
2023/08/28 01:21:42;;;;;;;3.90;2.55;;;;;;;;;;6244460;23;20093;-87
2023/08/28 01:24:10;;;;;;;4.60;2.58;;;;;;;;;;6214063;23;20460;-86
2023/08/28 01:26:36;;;;;;;3.40;2.70;;;;;;;;;;6191883;23;20024;-87
2023/08/28 01:29:03;;;;;;;4.55;2.60;;;;;;;;;;6243193;23;20023;-86
2023/08/28 01:31:29;;;;;;;4.82;2.50;;;;;;;;;;6216243;23;20020;-86
2023/08/28 01:33:55;;;;;;;6.88;2.97;;;;;;;;;;6218543;23;20011;-86
2023/08/28 01:36:23;;;;;;;3.50;2.47;;;;;;;;;;6216637;23;20008;-85
2023/08/28 01:38:52;;;;;;;3.97;2.67;;;;;;;;;;6215564;23;20051;-86
2023/08/28 01:41:19;;;;;;;5.40;2.45;;;;;;;;;;6215802;23;20012;-86
2023/08/28 01:43:47;;;;;;;4.13;3.00;;;;;;;;;;6216372;23;20012;-86
2023/08/28 01:46:13;;;;;;;3.92;3.20;;;;;;;;;;6243551;23;20363;-87
2023/08/28 01:48:47;;;;;;;4.80;3.25;;;;;;;;;;6191438;23;20095;-86
2023/08/28 01:51:14;;;;;;;3.67;2.65;;;;;;;;;;6215520;23;20035;-86
2023/08/28 01:53:40;;;;;;;6.80;3.47;;;;;;;;;;6243156;23;20050;-86
2023/08/28 01:56:09;;;;;;;5.45;3.63;;;;;;;;;;6216170;23;20084;-86
2023/08/28 01:58:39;;;;;;;5.38;3.28;;;;;;;;;;6216151;23;20040;-87
2023/08/28 02:01:05;;;;;;;5.75;3.38;;;;;;;;;;6216098;23;20031;-86
2023/08/28 02:03:32;;;;;;;5.43;3.90;;;;;;;;;;6242988;23;20200;-86
2023/08/28 02:05:58;;;;;;;5.35;4.40;;;;;;;;;;6242896;23;20019;-86
2023/08/28 02:08:24;;;;;;;5.53;3.92;;;;;;;;;;6242279;23;20034;-86
2023/08/28 02:10:50;;;;;;;5.03;3.63;;;;;;;;;;6215914;23;20023;-86
2023/08/28 02:13:16;;;;;;;4.25;3.17;;;;;;;;;;6243006;23;20016;-87
2023/08/28 02:15:42;;;;;;;4.07;3.42;;;;;;;;;;6215737;23;20013;-86
2023/08/28 02:18:08;;;;;;;5.57;3.90;;;;;;;;;;6214966;23;20040;-86
2023/08/28 02:20:34;;;;;;;5.65;3.15;;;;;;;;;;6216602;23;20023;-87
2023/08/28 02:23:00;;;;;;;4.22;3.05;;;;;;;;;;6215608;23;20074;-87
2023/08/28 02:25:26;;;;;;;6.43;3.50;;;;;;;;;;6215552;23;20013;-87
2023/08/28 02:27:52;;;;;;;5.43;3.13;;;;;;;;;;6215389;23;20016;-87
2023/08/28 02:30:18;;;;;;;3.92;2.63;;;;;;;;;;6214974;23;20015;-87
2023/08/28 02:32:47;;;;;;;4.72;3.75;;;;;;;;;;6243491;23;20023;-87
2023/08/28 02:35:13;;;;;;;4.57;3.28;;;;;;;;;;6215604;23;20049;-86
2023/08/28 02:37:40;;;;;;;4.75;3.70;;;;;;;;;;6215714;23;20327;-87
2023/08/28 02:40:06;;;;;;;5.70;4.15;;;;;;;;;;6215711;23;20070;-87
2023/08/28 02:42:32;;;;;;;4.95;3.50;;;;;;;;;;6215961;23;20019;-87
2023/08/28 02:44:58;;;;;;;7.22;3.85;;;;;;;;;;6243117;23;20015;-87
2023/08/28 02:47:24;;;;;;;5.65;4.53;;;;;;;;;;6215907;23;20043;-86
2023/08/28 02:49:50;;;;;;;5.95;3.60;;;;;;;;;;6242288;23;20012;-87
2023/08/28 02:52:17;;;;;;;4.60;3.50;;;;;;;;;;6215498;23;20065;-88
2023/08/28 02:54:43;;;;;;;4.20;3.55;;;;;;;;;;6216078;23;20450;-86
2023/08/28 02:57:09;;;;;;;6.38;4.28;;;;;;;;;;6241833;23;20025;-86
2023/08/28 02:59:35;;;;;;;6.10;3.92;;;;;;;;;;6243506;23;20016;-86
2023/08/28 03:02:01;;;;;;;5.80;4.13;;;;;;;;;;6214988;23;20015;-86
2023/08/28 03:04:27;;;;;;;5.63;4.18;;;;;;;;;;6215008;23;20043;-87
2023/08/28 03:06:53;;;;;;;5.30;4.20;;;;;;;;;;6242425;23;20343;-86
2023/08/28 03:09:19;;;;;;;5.00;3.70;;;;;;;;;;6215800;23;20465;-87
2023/08/28 03:11:46;;;;;;;4.97;4.13;;;;;;;;;;6215988;23;20338;-87
2023/08/28 03:14:12;;;;;;;6.75;4.45;;;;;;;;;;6214413;23;20023;-87
2023/08/28 03:16:38;;;;;;;6.22;4.43;;;;;;;;;;6243169;23;20036;-87
2023/08/28 03:19:04;;;;;;;6.95;4.18;;;;;;;;;;6239870;23;20078;-87
2023/08/28 03:21:30;;;;;;;6.13;4.22;;;;;;;;;;6189741;23;20012;-87
2023/08/28 03:23:56;;;;;;;6.72;4.78;;;;;;;;;;6242448;23;20054;-88
2023/08/28 03:26:25;;;;;;;5.65;4.43;;;;;;;;;;6214845;23;20034;-88
2023/08/28 03:28:51;;;;;;;5.05;3.83;;;;;;;;;;6242644;23;20031;-87
2023/08/28 03:31:17;;;;;;;4.65;3.63;;;;;;;;;;6242598;23;20066;-87
2023/08/28 03:33:43;;;;;;;6.15;3.47;;;;;;;;;;6241602;23;20008;-87
2023/08/28 03:36:09;;;;;;;5.10;3.95;;;;;;;;;;6214787;23;20070;-87
2023/08/28 03:38:35;;;;;;;5.53;4.38;;;;;;;;;;6242618;23;20012;-87
2023/08/28 03:41:02;;;;;;;6.20;4.03;;;;;;;;;;6241868;23;20012;-87
2023/08/28 03:43:28;;;;;;;6.70;4.88;;;;;;;;;;6215509;23;20488;-87
2023/08/28 03:45:54;;;;;;;7.20;4.65;;;;;;;;;;6190213;23;20008;-88
2023/08/28 03:48:20;;;;;;;6.75;4.25;;;;;;;;;;6214866;23;20374;-87
2023/08/28 03:50:46;;;;;;;5.85;4.82;;;;;;;;;;6215441;23;20051;-87
2023/08/28 03:53:12;;;;;;;5.43;3.92;;;;;;;;;;6214455;23;20035;-87
2023/08/28 03:55:38;;;;;;;6.45;4.32;;;;;;;;;;6216145;23;20063;-87
2023/08/28 03:58:05;;;;;;;6.05;4.53;;;;;;;;;;6243855;23;20013;-87
2023/08/28 04:00:34;;;;;;;6.88;4.43;;;;;;;;;;6215763;23;20012;-88
2023/08/28 04:03:00;;;;;;;6.40;4.55;;;;;;;;;;6214818;23;20016;-86
2023/08/28 04:05:29;;;;;;;6.00;4.50;;;;;;;;;;6241777;23;20012;-87
2023/08/28 04:07:55;;;;;;;6.53;4.43;;;;;;;;;;6214841;23;20012;-87
2023/08/28 04:10:21;;;;;;;6.50;3.85;;;;;;;;;;6241214;23;20091;-88
2023/08/28 04:12:47;;;;;;;6.22;4.70;;;;;;;;;;6215495;23;20016;-87
2023/08/28 04:15:13;;;;;;;5.43;4.15;;;;;;;;;;6240619;23;20335;-88
2023/08/28 04:17:39;;;;;;;4.65;3.63;;;;;;;;;;6214093;23;20042;-88
2023/08/28 04:20:12;;;;;;;5.82;3.75;;;;;;;;;;6214724;23;20008;-89
2023/08/28 04:22:43;;;;;;;6.13;4.40;;;;;;;;;;6242395;23;20017;-89
2023/08/28 04:25:09;;;;;;;;;;;;;;;;;;6214688;23;20528;-87
2023/08/28 04:27:35;;;;;;;5.72;4.07;;;;;;;;;;6215960;23;19986;-88
2023/08/28 04:30:01;;;;;;;6.18;3.92;;;;;;;;;;6241771;23;20059;-88
2023/08/28 04:32:27;;;;;;;5.63;3.78;;;;;;;;;;6214963;23;20086;-88
2023/08/28 04:34:53;;;;;;;5.15;3.83;;;;;;;;;;6215442;23;20452;-89
2023/08/28 04:37:19;;;;;;;6.22;4.50;;;;;;;;;;6190169;23;20020;-88
2023/08/28 04:39:45;;;;;;;4.70;3.97;;;;;;;;;;6215834;23;20016;-89
2023/08/28 04:42:11;;;;;;;5.80;4.28;;;;;;;;;;6189723;23;20019;-88
2023/08/28 04:44:37;;;;;;;6.30;3.88;;;;;;;;;;6243003;23;20008;-88
2023/08/28 04:47:04;;;;;;;5.97;4.18;;;;;;;;;;6241452;23;20130;-89
2023/08/28 04:49:30;;;;;;;5.90;3.78;;;;;;;;;;6215525;23;20050;-89
2023/08/28 04:51:56;;;;;;;5.82;4.55;;;;;;;;;;6241371;23;20118;-89
2023/08/28 04:54:22;;;;;;;5.93;4.05;;;;;;;;;;6215600;23;20016;-89
2023/08/28 04:56:49;;;;;;;6.43;5.03;;;;;;;;;;6216137;23;20019;-88
2023/08/28 04:59:15;;;;;;;6.75;4.22;;;;;;;;;;6242286;23;20012;-88
2023/08/28 05:01:41;;;;;;;4.88;3.70;;;;;;;;;;6215296;23;20012;-89
2023/08/28 05:04:07;;;;;;;4.90;3.47;;;;;;;;;;6215632;23;20012;-88
2023/08/28 05:06:33;;;;;;;4.60;3.42;;;;;;;;;;6190132;23;20038;-88
2023/08/28 05:08:59;;;;;;;4.32;3.45;;;;;;;;;;6188518;23;20099;-87
2023/08/28 05:11:25;;;;;;;5.55;3.85;;;;;;;;;;6215135;23;20040;-87
2023/08/28 05:13:52;;;;;;;7.38;4.20;;;;;;;;;;6241623;23;20103;-87
2023/08/28 05:16:18;;;;;;;5.97;3.95;;;;;;;;;;6214081;23;20019;-87
2023/08/28 05:18:44;;;;;;;5.63;4.18;;;;;;;;;;6213124;23;20026;-87
2023/08/28 05:21:10;;;;;;;5.80;3.80;;;;;;;;;;6241470;23;20039;-87
2023/08/28 05:23:36;;;;;;;6.28;4.65;;;;;;;;;;6215048;23;20454;-87
2023/08/28 05:26:02;;;;;;;5.95;3.55;;;;;;;;;;6214804;23;20087;-86
2023/08/28 05:28:31;;;;;;;5.00;3.97;;;;;;;;;;6244179;23;20045;-88
2023/08/28 05:30:57;;;;;;;5.82;4.03;;;;;;;;;;6215793;23;20016;-86
2023/08/28 05:33:23;;;;;;;5.43;3.72;;;;;;;;;;6243854;23;20019;-87
2023/08/28 05:35:50;;;;;;;6.43;3.60;;;;;;;;;;6217628;23;20094;-87
2023/08/28 05:38:16;;;;;;;4.60;3.65;;;;;;;;;;6215526;23;20050;-86
2023/08/28 05:40:42;;;;;;;5.75;3.88;;;;;;;;;;6243129;23;20015;-86
2023/08/28 05:43:08;;;;;;;4.82;4.05;;;;;;;;;;6244398;23;20015;-86
2023/08/28 05:45:34;;;;;;;5.72;4.38;;;;;;;;;;6250558;23;20012;-86
2023/08/28 05:48:00;;;;;;;4.70;3.65;;;;;;;;;;6222160;23;20406;-87
2023/08/28 05:50:26;;;;;;;6.32;4.65;;;;;;;;;;6216616;23;20016;-85
2023/08/28 05:52:52;;;;;;;5.65;3.97;;;;;;;;;;6214638;23;20027;-85
2023/08/28 05:55:18;;;;;;;6.43;3.78;;;;;;;;;;6197584;23;20027;-88
2023/08/28 05:57:44;;;;;;;5.35;4.10;;;;;;;;;;6202382;23;20012;-88
2023/08/28 06:00:14;;;;;;;5.22;4.25;;;;;;;;;;6239997;23;20050;-85
2023/08/28 06:02:40;;;;;;;6.25;4.43;;;;;;;;;;6214614;23;20139;-85
2023/08/28 06:05:06;;;;;;;7.45;4.65;;;;;;;;;;6242099;23;20086;-86
2023/08/28 06:07:33;;;;;;;6.38;4.32;;;;;;;;;;6215316;23;20020;-86
2023/08/28 06:09:59;;;;;;;5.28;4.07;;;;;;;;;;6213638;23;20012;-85
2023/08/28 06:12:25;;;;;;;5.93;4.15;;;;;;;;;;6215205;23;20016;-84
2023/08/28 06:14:51;;;;;;;6.05;4.72;;;;;;;;;;6242419;23;20023;-85
2023/08/28 06:17:17;;;;;;;5.45;4.05;;;;;;;;;;6214645;23;20016;-84
2023/08/28 06:19:43;;;;;;;6.55;4.68;;;;;;;;;;6242856;23;20383;-85
2023/08/28 06:22:09;;;;;;;6.43;4.32;;;;;;;;;;6214880;23;20327;-85
2023/08/28 06:24:35;;;;;;;7.20;4.72;;;;;;;;;;6241313;23;20325;-85
2023/08/28 06:27:02;;;;;;;7.47;5.00;;;;;;;;;;6215048;23;20071;-84
2023/08/28 06:29:28;;;;;;;6.43;4.63;;;;;;;;;;6214225;23;20020;-83
2023/08/28 06:31:54;;;;;;;6.03;3.85;;;;;;;;;;6242264;23;20012;-85
2023/08/28 06:34:20;;;;;;;5.03;3.88;;;;;;;;;;6215275;23;20070;-83
2023/08/28 06:36:49;;;;;;;5.72;4.13;;;;;;;;;;6242822;23;20016;-84
2023/08/28 06:39:15;;;;;;;5.45;3.83;;;;;;;;;;6242074;23;20016;-83
2023/08/28 06:41:41;;;;;;;5.07;4.32;;;;;;;;;;6241717;23;20051;-83
2023/08/28 06:44:07;;;;;;;5.05;3.65;;;;;;;;;;6214239;23;20015;-83
2023/08/28 06:46:33;;;;;;;5.10;3.90;;;;;;;;;;6215374;23;20042;-84
2023/08/28 06:48:59;;;;;;;5.10;3.63;;;;;;;;;;6242183;23;20138;-83
2023/08/28 06:51:25;;;;;;;7.18;4.30;;;;;;;;;;6240247;23;20020;-83
2023/08/28 06:53:52;;;;;;;4.57;3.35;;;;;;;;;;6214773;23;20031;-82
2023/08/28 06:56:20;;;;;;;4.57;3.50;;;;;;;;;;6215223;23;20066;-82
2023/08/28 06:58:46;;;;;;;4.47;3.35;;;;;;;;;;6242642;23;20020;-83
2023/08/28 07:01:12;;;;;;;5.95;3.88;;;;;;;;;;6212120;23;20369;-83
2023/08/28 07:03:38;;;;;;;5.07;3.78;;;;;;;;;;6214393;23;20039;-83
2023/08/28 07:06:04;;;;;;;5.03;3.83;;;;;;;;;;6214508;23;20016;-83
2023/08/28 07:08:30;;;;;;;5.53;3.38;;;;;;;;;;6240261;23;20012;-83
2023/08/28 07:10:56;;;;;;;6.93;3.90;;;;;;;;;;6213175;23;20350;-83
2023/08/28 07:13:22;;;;;;;5.90;3.47;;;;;;;;;;6240002;23;20012;-83
2023/08/28 07:15:48;;;;;;;5.57;3.17;;;;;;;;;;6214051;23;20095;-83
2023/08/28 07:18:16;;;;;;;5.32;3.40;;;;;;;;;;6211713;23;20051;-87
2023/08/28 07:20:42;;;;;;;5.60;2.88;;;;;;;;;;6213497;23;20047;-87
2023/08/28 07:23:09;;;;;;;4.35;3.15;;;;;;;;;;6213755;23;20016;-87
2023/08/28 07:25:35;;;;;;;3.47;3.03;;;;;;;;;;6213716;23;20315;-88
2023/08/28 07:28:01;;;;;;;3.97;3.15;;;;;;;;;;6189735;23;20020;-92
2023/08/28 07:30:27;;;;;;;6.13;3.15;;;;;;;;;;6215672;23;20169;-90
2023/08/28 07:32:53;;;;;;;4.35;2.83;;;;;;;;;;6215218;23;20059;-91
2023/08/28 07:35:19;;;;;;;4.97;2.78;;;;;;;;;;6192417;23;20019;-91
2023/08/28 07:37:45;;;;;;;3.50;2.60;;;;;;;;;;6217298;23;20016;-89
2023/08/28 07:40:11;;;;;;;2.92;2.45;;;;;;;;;;6189209;23;20016;-90
2023/08/28 07:42:37;;;;;;;2.00;1.83;;;;;;;;;;6244348;23;20023;-89
2023/08/28 07:45:04;;;;;;;2.22;2.03;;;;;;;;;;6241502;23;20019;-89
2023/08/28 07:47:30;;;;;;;3.63;2.78;;;;;;;;;;6241362;23;20094;-90
2023/08/28 07:49:56;;;;;;;2.80;2.55;;;;;;;;;;6216306;23;20016;-86
2023/08/28 07:52:22;;;;;;;2.95;2.17;;;;;;;;;;6242436;23;20016;-87
2023/08/28 07:54:48;;;;;;;1.70;1.60;;;;;;;;;;6216583;23;20409;-88
2023/08/28 07:57:14;;;;;;;2.30;1.70;;;;;;;;;;6213990;23;20012;-88
2023/08/28 07:59:41;;;;;;;3.15;1.55;;;;;;;;;;6243386;23;20051;-89
2023/08/28 08:02:07;;;;;;;2.85;1.80;;;;;;;;;;6190349;23;20012;-84
2023/08/28 08:04:33;;;;;;;2.55;1.42;;;;;;;;;;6215885;23;20013;-88
2023/08/28 08:07:01;;;;;;;1.40;1.20;;;;;;;;;;6246250;23;20414;-89
2023/08/28 08:09:27;;;;;;;1.50;1.30;;;;;;;;;;6192908;23;20098;-89
2023/08/28 08:11:53;;;;;;;2.55;1.50;;;;;;;;;;6215012;23;20020;-94
2023/08/28 08:14:19;;;;;;;2.03;1.35;;;;;;;;;;6235345;22;20064;-93
2023/08/28 08:16:45;;;;;;;2.28;1.05;;;;;;;;;;6244631;23;20004;-94
2023/08/28 08:19:11;;;;;;;1.67;0.95;;;;;;;;;;6211948;22;20004;-93
2023/08/28 08:21:37;;;;;;;1.65;0.80;;;;;;;;;;6219426;23;20024;-93
2023/08/28 08:24:04;;;;;;;1.00;0.90;;;;;;;;;;6208431;23;20077;-94
2023/08/28 08:26:30;;;;;;;4.13;0.80;;;;;;;;;;6220748;23;20008;-94
2023/08/28 08:28:56;;;;;;;1.27;0.55;;;;;;;;;;6195872;23;20242;-91
2023/08/28 08:31:22;;;;;;;2.17;0.63;;;;;;;;;;6219448;23;20016;-92
2023/08/28 08:33:48;;;;;;;2.00;0.90;;;;;;;;;;6196703;23;20043;-95
2023/08/28 08:36:17;;;;;;;3.70;0.60;;;;;;;;;;6195136;23;20326;-93
2023/08/28 08:38:43;;;;;;;2.03;0.80;;;;;;;;;;6247155;23;20016;-96
2023/08/28 08:41:10;;;;;;;2.08;0.85;;;;;;;;;;6191096;23;20394;-90
2023/08/28 08:43:36;;;;;;;1.17;0.60;;;;;;;;;;6192539;23;20066;-94
2023/08/28 08:46:06;;;;;;;1.77;0.90;;;;;;;;;;6193201;23;20015;-93
2023/08/28 08:48:36;;;;;;;0.70;0.70;;;;;;;;;;6217366;23;20054;-94
2023/08/28 08:51:06;;;;;;;0.98;0.70;;;;;;;;;;6189635;23;20016;-95
2023/08/28 08:53:52;;;;;;;0.93;0.60;;;;;;;;;;6195221;23;20047;-93
2023/08/28 08:56:18;;;;;;;1.00;0.60;;;;;;;;;;6195141;23;20066;-91
2023/08/28 08:58:45;;;;;;;2.75;0.80;;;;;;;;;;6196611;23;20091;-90
2023/08/28 09:01:11;;;;;;;3.45;1.15;;;;;;;;;;6194352;23;20008;-90
2023/08/28 09:03:42;;;;;;;3.05;0.90;;;;;;;;;;6195230;23;20019;-90
2023/08/28 09:06:08;;;;;;;;;;;;;;;;;;6247020;23;20012;-92
2023/08/28 09:08:37;;;;;;;0.60;0.57;;;;;;;;;;6196186;23;19918;-89
2023/08/28 09:11:08;;;;;;;2.90;0.70;;;;;;;;;;6216755;23;20022;-90
2023/08/28 09:13:34;;;;;;;1.25;0.60;;;;;;;;;;6218039;23;20402;-89
2023/08/28 09:16:00;;;;;;;1.02;0.60;;;;;;;;;;6244859;23;20015;-95
2023/08/28 09:18:26;;;;;;;1.80;1.00;;;;;;;;;;6218769;23;20016;-92
2023/08/28 09:21:07;;;;;;;0.90;0.60;;;;;;;;;;6245330;23;20326;-94
2023/08/28 09:23:33;;;;;;;0.52;0.40;;;;;;;;;;6215861;23;20027;-90
2023/08/28 09:25:59;;;;;;;1.75;0.50;;;;;;;;;;6218882;23;20016;-95
2023/08/28 09:28:25;;;;;;;0.50;0.50;;;;;;;;;;6220373;23;20138;-90
2023/08/28 09:30:51;;;;;;;2.95;0.63;;;;;;;;;;6244268;23;20095;-91
2023/08/28 09:33:18;;;;;;;2.33;0.40;;;;;;;;;;6196923;23;20012;-92
2023/08/28 09:35:44;;;;;;;1.92;0.60;;;;;;;;;;6194857;23;20016;-89
2023/08/28 09:38:11;;;;;;;0.80;0.45;;;;;;;;;;6190979;23;20016;-92
2023/08/28 09:40:41;;;;;;;1.45;0.43;;;;;;;;;;6196121;23;20020;-91
2023/08/28 09:43:16;;;;;;;0.75;0.52;;;;;;;;;;6246084;23;20012;-92
2023/08/28 09:45:44;;;;;;;1.45;0.73;;;;;;;;;;6194274;23;20065;-95
2023/08/28 09:48:10;;;;;;;1.15;0.60;;;;;;;;;;6217138;23;20012;-91
2023/08/28 09:50:38;;;;;;;0.80;0.50;;;;;;;;;;6194743;23;20095;-95
2023/08/28 09:53:08;;;;;;;1.50;0.50;;;;;;;;;;6221338;23;20075;-95
2023/08/28 09:55:40;;;;;;;1.38;0.40;;;;;;;;;;6195930;23;20430;-88
2023/08/28 09:58:11;;;;;;;1.30;0.47;;;;;;;;;;6211842;23;20039;-85
2023/08/28 10:00:37;;;;;;;;;;;;;;;;;;6213643;23;20146;-93
2023/08/28 10:03:04;;;;;;;1.17;0.40;;;;;;;;;;6187779;23;19916;-87
2023/08/28 10:05:31;;;;;;;1.20;0.60;;;;;;;;;;6212790;23;20013;-85
2023/08/28 10:08:02;;;;;;;2.97;0.52;;;;;;;;;;6211904;23;20087;-90
2023/08/28 10:10:29;;;;;;;1.52;0.80;;;;;;;;;;6211780;23;20032;-88
2023/08/28 10:12:55;;;;;;;1.17;0.60;;;;;;;;;;6211257;23;20031;-90
2023/08/28 10:15:22;;;;;;;0.50;0.30;;;;;;;;;;6211752;23;20020;-87
2023/08/28 10:17:48;;;;;;;0.77;0.50;;;;;;;;;;6213157;23;20020;-86
2023/08/28 10:20:16;;;;;;;0.95;0.38;;;;;;;;;;6210590;23;20016;-86
2023/08/28 10:22:42;;;;;;;0.57;0.47;;;;;;;;;;6208519;23;20725;-85
2023/08/28 10:25:09;;;;;;;0.38;0.30;;;;;;;;;;6212547;23;20430;-95
2023/08/28 10:27:35;;;;;;;0.70;0.50;;;;;;;;;;6195369;23;20016;-91
2023/08/28 10:30:04;;;;;;;0.65;0.30;;;;;;;;;;6191545;23;20071;-92
2023/08/28 10:32:30;;;;;;;1.20;0.50;;;;;;;;;;6228513;23;20055;-95
2023/08/28 10:34:58;;;;;;;1.42;0.50;;;;;;;;;;6215075;23;20051;-94
2023/08/28 10:37:24;;;;;;;1.00;0.30;;;;;;;;;;6241111;23;20039;-95
2023/08/28 10:39:50;;;;;;;1.98;0.50;;;;;;;;;;6230831;23;20013;-89
2023/08/28 10:42:20;;;;;;;0.57;0.30;;;;;;;;;;6212714;23;20248;-93
2023/08/28 10:44:47;;;;;;;0.55;0.30;;;;;;;;;;6217064;23;20043;-95
2023/08/28 10:47:18;;;;;;;0.40;0.30;;;;;;;;;;6217338;23;20501;-93
2023/08/28 10:49:44;;;;;;;1.00;0.45;;;;;;;;;;6220700;23;20023;-93
2023/08/28 10:52:10;;;;;;;1.48;0.40;;;;;;;;;;6188307;23;20013;-93
2023/08/28 10:54:41;;;;;;;0.80;0.45;;;;;;;;;;6188709;23;20017;-91
2023/08/28 10:57:20;;;;;;;0.80;0.57;;;;;;;;;;6213623;23;20017;-90
2023/08/28 10:59:48;;;;;;;0.50;0.50;;;;;;;;;;6212495;23;20020;-89
2023/08/28 11:02:14;;;;;;;0.82;0.60;;;;;;;;;;6211601;23;20440;-92
2023/08/28 11:04:40;;;;;;;0.80;0.35;;;;;;;;;;6211269;23;20016;-89
2023/08/28 11:07:27;;;;;;;0.70;0.47;;;;;;;;;;6212299;23;20028;-87
2023/08/28 11:10:13;;;;;;;0.93;0.47;;;;;;;;;;6212111;23;20480;-89
2023/08/28 11:12:51;;;;;;;0.80;0.50;;;;;;;;;;6210497;23;20020;-89
2023/08/28 11:15:26;;;;;;;0.32;0.32;;;;;;;;;;6212295;23;20461;-90
2023/08/28 11:18:12;;;;;;;0.45;0.30;;;;;;;;;;6211126;23;20353;-92
2023/08/28 11:20:38;;;;;;;1.40;0.45;;;;;;;;;;6212386;23;20066;-92
2023/08/28 11:23:04;;;;;;;0.80;0.40;;;;;;;;;;6185714;23;20012;-92
2023/08/28 11:25:37;;;;;;;1.17;0.47;;;;;;;;;;6213216;23;20013;-94
2023/08/28 11:28:03;;;;;;;1.17;0.40;;;;;;;;;;6184809;23;20012;-87
2023/08/28 11:30:30;;;;;;;0.50;0.30;;;;;;;;;;6209487;23;20382;-92
2023/08/28 11:32:56;;;;;;;0.40;0.30;;;;;;;;;;6211378;23;20055;-90
2023/08/28 11:35:23;;;;;;;0.98;0.40;;;;;;;;;;6210856;23;20024;-90
2023/08/28 11:37:56;;;;;;;0.70;0.60;;;;;;;;;;6186253;23;20059;-92
2023/08/28 11:40:23;;;;;;;0.65;0.40;;;;;;;;;;6212124;23;20020;-90
2023/08/28 11:42:50;;;;;;;0.25;0.25;;;;;;;;;;6187180;23;20048;-90
2023/08/28 11:45:20;;;;;;;0.55;0.40;;;;;;;;;;6213018;23;20385;-90
2023/08/28 11:47:46;;;;;;;0.65;0.40;;;;;;;;;;6213078;23;20095;-92
2023/08/28 11:50:12;;;;;;;1.45;0.50;;;;;;;;;;6211064;23;20031;-91
2023/08/28 11:52:39;;;;;;;0.40;0.40;;;;;;;;;;6186350;23;20067;-92
2023/08/28 11:55:06;;;;;;;1.05;0.40;;;;;;;;;;6210636;23;20012;-93
2023/08/28 11:57:34;;;;;;;0.40;0.30;;;;;;;;;;6186998;23;20066;-90
2023/08/28 12:00:01;;;;;;;1.00;0.47;;;;;;;;;;6210412;23;20442;-84
2023/08/28 12:02:29;;;;;;;0.45;0.45;;;;;;;;;;6209679;23;20091;-85
2023/08/28 12:04:55;;;;;;;0.90;0.43;;;;;;;;;;6210010;23;20013;-90
2023/08/28 12:07:23;;;;;;;0.77;0.50;;;;;;;;;;6209423;23;20036;-86
2023/08/28 12:09:50;;;;;;;2.05;0.60;;;;;;;;;;6210009;23;20104;-86
2023/08/28 12:12:17;;;;;;;0.95;0.50;;;;;;;;;;6209949;23;20020;-86
2023/08/28 12:14:43;;;;;;;0.88;0.60;;;;;;;;;;6210269;23;20100;-86
2023/08/28 12:17:27;;;;;;;0.95;0.50;;;;;;;;;;6207972;23;20047;-85
2023/08/28 12:19:54;;;;;;;2.30;0.38;;;;;;;;;;6208893;23;20024;-83
2023/08/28 12:22:25;;;;;;;0.75;0.47;;;;;;;;;;6206957;23;20017;-82
2023/08/28 12:24:51;;;;;;;0.52;0.30;;;;;;;;;;6206848;23;20460;-83
2023/08/28 12:27:24;;;;;;;0.85;0.30;;;;;;;;;;6206484;23;20021;-85
2023/08/28 12:29:50;;;;;;;0.73;0.40;;;;;;;;;;6207929;23;20120;-85
2023/08/28 12:32:17;;;;;;;1.05;0.40;;;;;;;;;;6181996;23;20016;-83
2023/08/28 12:34:44;;;;;;;1.63;0.68;;;;;;;;;;6207554;23;20096;-83
2023/08/28 12:37:11;;;;;;;0.93;0.40;;;;;;;;;;6207978;23;20028;-89
2023/08/28 12:39:45;;;;;;;2.17;0.60;;;;;;;;;;6209117;23;20146;-86
2023/08/28 12:42:13;;;;;;;0.65;0.40;;;;;;;;;;6207397;23;20012;-82
2023/08/28 12:44:41;;;;;;;1.25;0.38;;;;;;;;;;6209424;23;20031;-83
2023/08/28 12:47:08;;;;;;;1.85;0.47;;;;;;;;;;6209426;23;20017;-86
2023/08/28 12:49:35;;;;;;;0.68;0.43;;;;;;;;;;6209023;23;20013;-83
2023/08/28 12:52:01;;;;;;;0.88;0.50;;;;;;;;;;6208487;23;20020;-82
2023/08/28 12:54:27;;;;;;;1.75;0.35;;;;;;;;;;6210729;23;20017;-82
2023/08/28 12:56:53;;;;;;;0.40;0.20;;;;;;;;;;6209116;23;20024;-82
2023/08/28 12:59:22;;;;;;;1.15;0.40;;;;;;;;;;6210671;23;20330;-84
2023/08/28 13:01:48;;;;;;;2.60;0.35;;;;;;;;;;6209839;23;20013;-83
2023/08/28 13:04:14;;;;;;;0.60;0.50;;;;;;;;;;6209031;23;20374;-84
2023/08/28 13:06:40;;;;;;;0.40;0.40;;;;;;;;;;6211243;23;20013;-82
2023/08/28 13:09:07;;;;;;;0.43;0.30;;;;;;;;;;6208872;23;20346;-84
2023/08/28 13:11:33;;;;;;;0.30;0.30;;;;;;;;;;6209598;23;20023;-83
2023/08/28 13:14:00;;;;;;;1.35;0.60;;;;;;;;;;6209415;23;20035;-84
2023/08/28 13:16:26;;;;;;;0.70;0.40;;;;;;;;;;6211158;23;20021;-82
2023/08/28 13:18:53;;;;;;;0.50;0.30;;;;;;;;;;6213147;23;20016;-80
2023/08/28 13:21:19;;;;;;;0.35;0.30;;;;;;;;;;6210390;23;20071;-82
2023/08/28 13:23:45;;;;;;;0.75;0.40;;;;;;;;;;6211404;23;20028;-83
2023/08/28 13:26:11;;;;;;;0.35;0.30;;;;;;;;;;6209877;23;20043;-84
2023/08/28 13:28:37;;;;;;;0.60;0.45;;;;;;;;;;6213224;23;20036;-83
2023/08/28 13:31:03;;;;;;;0.43;0.40;;;;;;;;;;6211615;23;20463;-83
2023/08/28 13:33:29;;;;;;;0.32;0.22;;;;;;;;;;6206883;23;20020;-80
2023/08/28 13:35:56;;;;;;;0.85;0.40;;;;;;;;;;6210569;23;20021;-81
2023/08/28 13:38:22;;;;;;;1.48;0.38;;;;;;;;;;6212579;23;20337;-82
2023/08/28 13:40:48;;;;;;;1.02;0.32;;;;;;;;;;6213981;23;20024;-83
2023/08/28 13:43:15;;;;;;;0.98;0.40;;;;;;;;;;6210948;23;20016;-83
2023/08/28 13:45:41;;;;;;;0.95;0.40;;;;;;;;;;6211004;23;20083;-84
2023/08/28 13:48:07;;;;;;;0.50;0.32;;;;;;;;;;6211616;23;20066;-84
2023/08/28 13:50:33;;;;;;;1.38;0.50;;;;;;;;;;6186628;23;20048;-85
2023/08/28 13:52:59;;;;;;;0.95;0.40;;;;;;;;;;6237159;23;20021;-85
2023/08/28 13:55:27;;;;;;;0.75;0.40;;;;;;;;;;6216554;23;20052;-85
2023/08/28 13:57:54;;;;;;;0.85;0.50;;;;;;;;;;6214910;23;20389;-83
2023/08/28 14:00:21;;;;;;;2.88;0.60;;;;;;;;;;6215503;23;20016;-83
2023/08/28 14:02:47;;;;;;;1.33;0.40;;;;;;;;;;6214871;23;20473;-83
2023/08/28 14:05:13;;;;;;;1.30;0.40;;;;;;;;;;6241855;23;20510;-83
2023/08/28 14:07:43;;;;;;;0.40;0.40;;;;;;;;;;6216125;23;20070;-84
2023/08/28 14:10:10;;;;;;;0.68;0.40;;;;;;;;;;6241744;23;20020;-82
2023/08/28 14:12:36;;;;;;;0.25;0.20;;;;;;;;;;6215851;23;20023;-87
2023/08/28 14:15:06;;;;;;;0.95;0.40;;;;;;;;;;6215178;23;20020;-83
2023/08/28 14:17:32;;;;;;;0.82;0.40;;;;;;;;;;6214026;23;20175;-82
2023/08/28 14:19:58;;;;;;;1.00;0.32;;;;;;;;;;6242375;23;20030;-83
2023/08/28 14:22:24;;;;;;;0.50;0.30;;;;;;;;;;6215471;23;20107;-84
2023/08/28 14:24:50;;;;;;;1.95;0.68;;;;;;;;;;6214889;23;20108;-82
2023/08/28 14:27:17;;;;;;;4.47;0.60;;;;;;;;;;6241661;23;20012;-82
2023/08/28 14:29:44;;;;;;;0.30;0.28;;;;;;;;;;6241648;23;20101;-84
2023/08/28 14:32:10;;;;;;;0.52;0.35;;;;;;;;;;6213715;23;20024;-84
2023/08/28 14:34:36;;;;;;;0.55;0.43;;;;;;;;;;6241753;23;20342;-84
2023/08/28 14:37:04;;;;;;;2.00;0.50;;;;;;;;;;6215012;23;20390;-85
2023/08/28 14:39:31;;;;;;;1.08;0.40;;;;;;;;;;6215310;23;20016;-85
2023/08/28 14:41:57;;;;;;;0.47;0.30;;;;;;;;;;6214264;23;20016;-86